createdAt,value
2022-08-10T00:01:51.720Z,17.51
2022-08-10T00:05:14.011Z,17.53
2022-08-10T00:08:29.035Z,17.50
2022-08-10T00:11:50.047Z,17.49
2022-08-10T00:15:11.026Z,17.47
2022-08-10T00:18:52.016Z,17.43
2022-08-10T00:22:17.004Z,17.40
2022-08-10T00:25:38.016Z,17.38
2022-08-10T00:28:59.096Z,17.38
2022-08-10T00:32:20.015Z,17.36
2022-08-10T00:35:42.026Z,17.40
2022-08-10T00:39:03.052Z,17.41
2022-08-10T00:42:26.058Z,17.41
2022-08-10T00:45:58.581Z,17.38
2022-08-10T00:49:21.041Z,17.35
2022-08-10T00:52:44.013Z,17.35
2022-08-10T00:56:35.054Z,17.34
2022-08-10T00:59:59.482Z,17.32
2022-08-10T01:04:39.888Z,17.31
2022-08-10T01:07:07.047Z,17.30
2022-08-10T01:10:46.049Z,17.26
2022-08-10T01:14:15.043Z,17.24
2022-08-10T01:17:49.800Z,17.21
2022-08-10T01:21:23.065Z,17.19
2022-08-10T01:25:02.076Z,17.17
2022-08-10T01:28:29.026Z,17.14
2022-08-10T01:31:56.074Z,17.11
2022-08-10T01:35:34.042Z,17.12
2022-08-10T01:38:57.036Z,17.10
2022-08-10T01:42:20.089Z,17.10
2022-08-10T01:45:45.655Z,17.09
2022-08-10T01:49:11.058Z,17.11
2022-08-10T01:52:34.203Z,17.10
2022-08-10T01:55:56.043Z,17.07
2022-08-10T01:59:23.076Z,17.04
2022-08-10T02:02:47.003Z,17.03
2022-08-10T02:06:11.088Z,17.08
2022-08-10T02:09:41.055Z,17.11
2022-08-10T02:13:04.100Z,17.16
2022-08-10T02:16:26.086Z,17.20
2022-08-10T02:19:50.105Z,17.25
2022-08-10T02:23:16.073Z,17.28
2022-08-10T02:26:38.141Z,17.32
2022-08-10T02:30:01.047Z,17.37
2022-08-10T02:33:23.106Z,17.47
2022-08-10T02:36:48.039Z,17.60
2022-08-10T02:40:09.086Z,17.63
2022-08-10T02:45:20.852Z,17.70
2022-08-10T02:47:56.062Z,17.79
2022-08-10T02:52:07.476Z,17.97
2022-08-10T02:55:18.014Z,18.20
2022-08-10T02:59:25.105Z,18.32
2022-08-10T03:02:54.051Z,18.36
2022-08-10T03:06:22.147Z,18.36
2022-08-10T03:09:47.063Z,18.34
2022-08-10T03:13:16.074Z,18.30
2022-08-10T03:16:38.104Z,18.25
2022-08-10T03:20:33.505Z,18.20
2022-08-10T03:23:42.089Z,18.19
2022-08-10T03:27:04.065Z,18.21
2022-08-10T03:30:32.829Z,18.27
2022-08-10T03:33:56.107Z,18.37
2022-08-10T03:37:17.102Z,18.50
2022-08-10T03:40:45.965Z,18.60
2022-08-10T03:44:08.169Z,18.70
2022-08-10T03:47:31.107Z,18.71
2022-08-10T03:50:53.121Z,18.73
2022-08-10T03:54:16.118Z,18.85
2022-08-10T03:57:37.103Z,19.15
2022-08-10T04:01:11.185Z,19.43
2022-08-10T04:04:33.085Z,19.66
2022-08-10T04:07:54.088Z,19.84
2022-08-10T04:11:15.090Z,19.98
2022-08-10T04:14:47.294Z,20.00
2022-08-10T04:18:12.100Z,19.94
2022-08-10T04:35:09.395Z,19.81
2022-08-10T04:38:32.284Z,20.16
2022-08-10T04:41:54.319Z,20.47
2022-08-10T04:45:18.300Z,20.79
2022-08-10T04:48:42.744Z,21.21
2022-08-10T04:52:20.281Z,21.40
2022-08-10T04:55:41.304Z,21.49
2022-08-10T04:59:02.283Z,21.51
2022-08-10T05:02:31.252Z,21.63
2022-08-10T10:27:28.893Z,27.90
2022-08-10T10:31:05.922Z,28.36
2022-08-10T10:34:53.930Z,28.63
2022-08-10T10:38:15.925Z,28.81
2022-08-10T10:41:57.333Z,28.98
2022-08-10T10:45:39.074Z,28.86
2022-08-10T10:49:29.914Z,28.43
2022-08-10T10:53:10.913Z,28.13
2022-08-10T10:57:01.995Z,28.28
2022-08-10T11:00:24.902Z,28.39
2022-08-10T11:04:00.941Z,28.42
2022-08-10T11:08:02.946Z,28.41
2022-08-10T11:12:00.711Z,28.47
2022-08-10T11:15:29.924Z,28.32
2022-08-10T11:19:16.919Z,28.47
2022-08-10T11:22:48.961Z,28.66
2022-08-10T11:26:16.895Z,28.93
2022-08-10T11:30:12.922Z,28.91
2022-08-10T11:34:46.412Z,28.37
2022-08-10T11:38:31.507Z,28.10
2022-08-10T11:42:09.641Z,28.18
2022-08-10T11:45:38.947Z,28.54
2022-08-10T11:49:59.949Z,28.66
2022-08-10T11:53:39.234Z,28.71
2022-08-10T11:57:06.969Z,28.77
2022-08-10T12:00:32.351Z,28.66
2022-08-10T12:03:55.920Z,28.61
2022-08-10T12:10:06.782Z,28.45
2022-08-10T12:11:03.008Z,28.56
2022-08-10T12:14:37.991Z,28.77
2022-08-10T12:18:05.923Z,28.38
2022-08-10T12:21:34.947Z,28.07
2022-08-10T12:25:49.575Z,28.07
2022-08-10T12:29:25.132Z,28.19
2022-08-10T12:33:15.973Z,28.47
2022-08-10T12:36:41.951Z,28.67
2022-08-10T12:40:34.583Z,28.53
2022-08-10T12:44:08.674Z,28.63
2022-08-10T12:48:06.952Z,29.30
2022-08-10T12:51:36.981Z,31.22
2022-08-10T12:54:59.939Z,31.66
2022-08-10T12:58:57.201Z,31.61
2022-08-10T13:02:10.338Z,31.39
2022-08-10T13:06:02.111Z,30.37
2022-08-10T13:09:17.001Z,29.69
2022-08-10T13:12:40.561Z,30.95
2022-08-10T13:16:03.997Z,30.49
2022-08-10T13:19:38.674Z,30.55
2022-08-10T13:23:14.940Z,32.41
2022-08-10T13:26:37.955Z,33.87
2022-08-10T13:30:35.743Z,34.93
2022-08-10T13:34:42.156Z,34.98
2022-08-10T13:37:48.994Z,36.14
2022-08-10T13:41:10.982Z,36.30
2022-08-10T13:44:44.963Z,36.63
2022-08-10T13:48:20.947Z,36.77
2022-08-10T13:51:54.419Z,37.36
2022-08-10T13:55:24.027Z,37.65
2022-08-10T13:58:47.980Z,37.76
2022-08-10T14:02:11.972Z,35.25
2022-08-10T14:05:46.972Z,35.75
2022-08-10T14:09:43.971Z,36.11
2022-08-10T14:13:07.036Z,36.79
2022-08-10T14:16:29.006Z,37.35
2022-08-10T14:19:53.036Z,37.72
2022-08-10T14:23:24.006Z,37.54
2022-08-10T14:26:46.978Z,37.30
2022-08-10T14:30:10.036Z,36.65
2022-08-10T14:33:32.970Z,33.86
2022-08-10T14:37:09.023Z,32.59
2022-08-10T14:40:35.978Z,34.96
2022-08-10T14:43:58.020Z,35.73
2022-08-10T14:47:53.870Z,34.84
2022-08-10T14:51:05.983Z,33.48
2022-08-10T14:54:30.163Z,33.64
2022-08-10T14:58:18.964Z,32.02
2022-08-10T15:02:01.235Z,31.26
2022-08-10T15:05:21.011Z,30.45
2022-08-10T15:08:43.068Z,29.78
2022-08-10T15:12:13.488Z,29.05
2022-08-10T15:16:11.459Z,28.32
2022-08-10T15:20:01.207Z,27.50
2022-08-10T15:23:09.018Z,26.92
2022-08-10T15:26:57.632Z,26.61
2022-08-10T15:30:21.053Z,26.52
2022-08-10T15:34:18.029Z,26.37
2022-08-10T15:37:41.499Z,26.34
2022-08-10T15:41:11.078Z,26.42
2022-08-10T15:44:31.987Z,28.89
2022-08-10T15:48:03.033Z,31.84
2022-08-10T15:51:54.322Z,33.52
2022-08-10T15:55:42.492Z,35.00
2022-08-10T15:59:11.006Z,34.13
2022-08-10T16:02:40.070Z,31.66
2022-08-10T16:06:08.028Z,31.61
2022-08-10T16:10:24.901Z,32.59
2022-08-10T16:13:50.746Z,30.98
2022-08-10T16:17:09.006Z,29.53
2022-08-10T16:20:54.863Z,28.80
2022-08-10T16:24:19.038Z,28.02
2022-08-10T16:27:42.012Z,27.50
2022-08-10T16:31:06.061Z,27.02
2022-08-10T16:34:29.063Z,26.70
2022-08-10T16:37:57.825Z,26.48
2022-08-10T16:42:02.110Z,26.26
2022-08-10T16:45:21.010Z,26.13
2022-08-10T16:48:49.989Z,26.04
2022-08-10T16:52:12.056Z,25.79
2022-08-10T16:55:47.987Z,25.45
2022-08-10T16:59:17.417Z,25.15
2022-08-10T17:02:41.032Z,24.95
2022-08-10T17:06:11.848Z,24.78
2022-08-10T17:09:31.077Z,24.63
2022-08-10T17:12:54.044Z,24.54
2022-08-10T17:16:18.083Z,24.46
2022-08-10T17:19:41.061Z,24.38
2022-08-10T17:23:06.056Z,24.28
2022-08-10T17:26:35.887Z,24.22
2022-08-10T17:30:07.015Z,24.13
2022-08-10T17:39:29.221Z,23.83
2022-08-10T17:44:00.812Z,23.66
2022-08-10T17:47:55.047Z,23.51
2022-08-10T17:51:22.156Z,23.44
2022-08-10T17:54:52.136Z,23.36
2022-08-10T17:58:16.141Z,23.27
2022-08-10T18:01:58.886Z,23.19
2022-08-10T18:05:24.098Z,23.09
2022-08-10T18:08:52.648Z,22.92
2022-08-10T18:12:27.725Z,22.78
2022-08-10T18:15:57.105Z,22.65
2022-08-10T18:19:21.178Z,22.54
2022-08-10T18:22:45.122Z,22.48
2022-08-10T18:26:14.142Z,22.38
2022-08-10T18:29:40.097Z,22.26
2022-08-10T18:33:08.093Z,22.12
2022-08-10T18:36:24.109Z,22.02
2022-08-10T18:39:49.154Z,21.91
2022-08-10T18:44:10.815Z,21.82
2022-08-10T18:47:10.084Z,21.73
2022-08-10T18:50:36.136Z,21.66
2022-08-10T18:54:07.155Z,21.58
2022-08-10T18:58:06.172Z,21.49
2022-08-10T19:01:50.101Z,21.41
2022-08-10T19:05:34.086Z,21.32
2022-08-10T19:08:50.800Z,21.32
2022-08-10T19:12:39.208Z,21.26
2022-08-10T19:16:15.147Z,21.22
2022-08-10T19:20:04.091Z,21.12
2022-08-10T19:23:44.191Z,21.11
2022-08-10T19:27:24.214Z,21.02
2022-08-10T19:30:56.263Z,20.95
2022-08-10T19:34:42.153Z,20.89
2022-08-10T19:38:18.139Z,20.83
2022-08-10T19:42:12.336Z,20.77
2022-08-10T19:46:01.421Z,20.73
2022-08-10T19:49:52.136Z,20.63
2022-08-10T19:53:36.100Z,20.56
2022-08-10T19:57:27.141Z,20.52
2022-08-10T20:01:03.182Z,20.46
2022-08-10T20:04:34.109Z,20.39
2022-08-10T20:08:11.152Z,20.33
2022-08-10T20:11:47.359Z,20.30
2022-08-10T20:15:20.156Z,20.25
2022-08-10T20:19:09.135Z,20.18
2022-08-10T20:22:34.145Z,20.13
2022-08-10T20:26:01.135Z,20.09
2022-08-10T20:29:58.766Z,20.02
2022-08-10T20:33:21.151Z,19.94
2022-08-10T20:37:01.152Z,19.87
2022-08-10T20:40:31.191Z,19.85
2022-08-10T20:44:06.158Z,19.82
2022-08-10T20:47:42.633Z,19.77
2022-08-10T20:51:20.125Z,19.73
2022-08-10T20:55:00.213Z,19.67
2022-08-10T20:58:51.113Z,19.61
2022-08-10T21:02:40.262Z,19.53
2022-08-10T21:06:41.782Z,19.46
2022-08-10T21:10:51.180Z,19.39
2022-08-10T21:14:41.143Z,19.35
2022-08-10T21:18:13.211Z,19.30
2022-08-10T21:21:59.071Z,19.30
2022-08-10T21:25:33.147Z,19.26
2022-08-10T21:29:22.178Z,19.19
2022-08-10T21:33:31.102Z,19.12
2022-08-10T21:36:56.164Z,19.07
2022-08-10T21:41:17.460Z,19.03
2022-08-10T21:45:08.095Z,19.00
2022-08-10T21:49:11.160Z,18.98
2022-08-10T21:53:18.141Z,18.92
2022-08-10T21:57:43.397Z,18.92
2022-08-10T22:01:39.817Z,18.86
2022-08-10T22:05:20.195Z,18.78
2022-08-10T22:09:15.220Z,18.75
2022-08-10T22:13:01.158Z,18.73
2022-08-10T22:16:59.236Z,18.68
2022-08-10T22:20:58.230Z,18.58
2022-08-10T22:25:16.515Z,18.54
2022-08-10T22:28:56.169Z,18.52
2022-08-10T22:32:43.177Z,18.46
2022-08-10T22:36:53.131Z,18.40
2022-08-10T22:40:40.192Z,18.31
2022-08-10T22:44:20.188Z,18.20
2022-08-10T22:48:02.142Z,18.08
2022-08-10T22:51:34.163Z,17.99
2022-08-10T22:55:22.179Z,17.92
2022-08-10T22:58:46.196Z,17.83
2022-08-10T23:02:23.220Z,17.81
2022-08-10T23:05:48.434Z,17.84
2022-08-10T23:09:16.206Z,17.88
2022-08-10T23:13:02.157Z,17.85
2022-08-10T23:16:51.249Z,17.78
2022-08-10T23:20:29.180Z,17.68
2022-08-10T23:23:52.223Z,17.70
2022-08-10T23:27:37.648Z,17.67
2022-08-10T23:30:57.162Z,17.58
2022-08-10T23:34:20.139Z,17.53
2022-08-10T23:37:47.161Z,17.50
2022-08-10T23:41:11.137Z,17.54
2022-08-10T23:44:33.169Z,17.57
2022-08-10T23:47:58.223Z,17.50
2022-08-10T23:51:27.146Z,17.51
2022-08-10T23:55:05.193Z,17.51
2022-08-10T23:58:33.573Z,17.49
